sensor_id;sensor_type;location;lat;lon;timestamp;temperature;humidity
11855;DHT22;5987;53.140;8.904;2023-03-12T00:02:33;1.50;99.90
11855;DHT22;5987;53.140;8.904;2023-03-12T00:05:37;1.50;99.90
11855;DHT22;5987;53.140;8.904;2023-03-12T00:08:41;1.50;99.90
11855;DHT22;5987;53.140;8.904;2023-03-12T00:11:45;1.40;99.90
11855;DHT22;5987;53.140;8.904;2023-03-12T00:14:49;1.50;99.90
11855;DHT22;5987;53.140;8.904;2023-03-12T00:17:54;1.40;99.90
11855;DHT22;5987;53.140;8.904;2023-03-12T00:20:58;1.40;99.90
11855;DHT22;5987;53.140;8.904;2023-03-12T00:24:02;1.40;99.90
11855;DHT22;5987;53.140;8.904;2023-03-12T00:27:06;1.40;99.90
11855;DHT22;5987;53.140;8.904;2023-03-12T00:30:11;1.40;99.90
11855;DHT22;5987;53.140;8.904;2023-03-12T00:33:16;1.40;99.90
11855;DHT22;5987;53.140;8.904;2023-03-12T00:36:22;1.40;99.90
11855;DHT22;5987;53.140;8.904;2023-03-12T00:39:28;1.40;99.90
11855;DHT22;5987;53.140;8.904;2023-03-12T00:42:31;1.30;99.90
11855;DHT22;5987;53.140;8.904;2023-03-12T00:45:35;1.20;99.90
11855;DHT22;5987;53.140;8.904;2023-03-12T00:48:41;1.20;99.90
11855;DHT22;5987;53.140;8.904;2023-03-12T00:51:45;1.20;99.90
11855;DHT22;5987;53.140;8.904;2023-03-12T00:54:49;1.30;99.90
11855;DHT22;5987;53.140;8.904;2023-03-12T00:57:53;1.30;99.90
11855;DHT22;5987;53.140;8.904;2023-03-12T01:00:57;1.20;99.90
11855;DHT22;5987;53.140;8.904;2023-03-12T01:04:02;1.20;99.90
11855;DHT22;5987;53.140;8.904;2023-03-12T01:07:06;1.20;99.90
11855;DHT22;5987;53.140;8.904;2023-03-12T01:10:13;1.10;99.90
11855;DHT22;5987;53.140;8.904;2023-03-12T01:13:19;1.20;99.90
11855;DHT22;5987;53.140;8.904;2023-03-12T01:16:23;1.20;99.90
11855;DHT22;5987;53.140;8.904;2023-03-12T01:19:31;1.10;99.90
11855;DHT22;5987;53.140;8.904;2023-03-12T01:22:35;1.00;99.90
11855;DHT22;5987;53.140;8.904;2023-03-12T01:25:39;0.90;99.90
11855;DHT22;5987;53.140;8.904;2023-03-12T01:28:43;0.90;99.90
11855;DHT22;5987;53.140;8.904;2023-03-12T01:31:47;0.80;99.90
11855;DHT22;5987;53.140;8.904;2023-03-12T01:34:54;0.70;99.90
11855;DHT22;5987;53.140;8.904;2023-03-12T01:37:59;0.60;99.90
11855;DHT22;5987;53.140;8.904;2023-03-12T01:41:04;0.40;99.90
11855;DHT22;5987;53.140;8.904;2023-03-12T01:44:12;0.40;99.90
11855;DHT22;5987;53.140;8.904;2023-03-12T01:47:17;0.40;99.90
11855;DHT22;5987;53.140;8.904;2023-03-12T01:50:22;0.30;99.90
11855;DHT22;5987;53.140;8.904;2023-03-12T01:53:26;0.30;99.90
11855;DHT22;5987;53.140;8.904;2023-03-12T01:56:33;0.30;99.90
11855;DHT22;5987;53.140;8.904;2023-03-12T01:59:42;0.30;99.90
11855;DHT22;5987;53.140;8.904;2023-03-12T02:02:50;0.30;99.90
11855;DHT22;5987;53.140;8.904;2023-03-12T02:06:02;0.20;99.90
11855;DHT22;5987;53.140;8.904;2023-03-12T02:09:11;0.20;99.90
11855;DHT22;5987;53.140;8.904;2023-03-12T02:12:16;0.20;99.90
11855;DHT22;5987;53.140;8.904;2023-03-12T02:15:21;0.10;99.90
11855;DHT22;5987;53.140;8.904;2023-03-12T02:18:24;0.10;99.90
11855;DHT22;5987;53.140;8.904;2023-03-12T02:21:32;0.10;99.90
11855;DHT22;5987;53.140;8.904;2023-03-12T02:24:42;0.00;99.90
11855;DHT22;5987;53.140;8.904;2023-03-12T02:27:51;0.00;99.90
11855;DHT22;5987;53.140;8.904;2023-03-12T02:30:58;0.00;99.90
11855;DHT22;5987;53.140;8.904;2023-03-12T02:34:04;0.00;99.90
11855;DHT22;5987;53.140;8.904;2023-03-12T02:37:09;0.00;99.90
11855;DHT22;5987;53.140;8.904;2023-03-12T02:40:18;0.00;99.90
11855;DHT22;5987;53.140;8.904;2023-03-12T02:43:28;0.00;99.90
11855;DHT22;5987;53.140;8.904;2023-03-12T02:46:34;-0.10;99.90
11855;DHT22;5987;53.140;8.904;2023-03-12T02:49:42;-0.10;99.90
11855;DHT22;5987;53.140;8.904;2023-03-12T02:52:45;-0.10;99.90
11855;DHT22;5987;53.140;8.904;2023-03-12T02:55:49;-0.10;99.90
11855;DHT22;5987;53.140;8.904;2023-03-12T02:58:54;-0.10;99.90
11855;DHT22;5987;53.140;8.904;2023-03-12T03:02:00;-0.10;99.90
11855;DHT22;5987;53.140;8.904;2023-03-12T03:05:04;-0.30;99.90
11855;DHT22;5987;53.140;8.904;2023-03-12T03:08:09;-0.30;99.90
11855;DHT22;5987;53.140;8.904;2023-03-12T03:11:13;-0.40;99.90
11855;DHT22;5987;53.140;8.904;2023-03-12T03:14:18;-0.50;99.90
11855;DHT22;5987;53.140;8.904;2023-03-12T03:17:22;-0.60;99.90
11855;DHT22;5987;53.140;8.904;2023-03-12T03:20:26;-0.60;99.90
11855;DHT22;5987;53.140;8.904;2023-03-12T03:23:29;-0.60;99.90
11855;DHT22;5987;53.140;8.904;2023-03-12T03:26:34;-0.70;99.90
11855;DHT22;5987;53.140;8.904;2023-03-12T03:29:39;-0.70;99.90
11855;DHT22;5987;53.140;8.904;2023-03-12T03:32:43;-0.60;99.90
11855;DHT22;5987;53.140;8.904;2023-03-12T03:35:47;-0.60;99.90
11855;DHT22;5987;53.140;8.904;2023-03-12T03:38:51;-0.60;99.90
11855;DHT22;5987;53.140;8.904;2023-03-12T03:41:54;-0.60;99.90
11855;DHT22;5987;53.140;8.904;2023-03-12T03:44:59;-0.60;99.90
11855;DHT22;5987;53.140;8.904;2023-03-12T03:48:04;-0.50;99.90
11855;DHT22;5987;53.140;8.904;2023-03-12T03:51:09;-0.50;99.90
11855;DHT22;5987;53.140;8.904;2023-03-12T03:54:13;-0.40;99.90
11855;DHT22;5987;53.140;8.904;2023-03-12T03:57:17;-0.50;99.90
11855;DHT22;5987;53.140;8.904;2023-03-12T04:00:22;-0.60;99.90
11855;DHT22;5987;53.140;8.904;2023-03-12T04:03:26;-0.70;99.90
11855;DHT22;5987;53.140;8.904;2023-03-12T04:06:30;-0.70;99.90
11855;DHT22;5987;53.140;8.904;2023-03-12T04:09:34;-0.70;99.90
11855;DHT22;5987;53.140;8.904;2023-03-12T04:12:38;-0.70;99.90
11855;DHT22;5987;53.140;8.904;2023-03-12T04:15:47;-0.60;99.90
11855;DHT22;5987;53.140;8.904;2023-03-12T04:18:51;-0.60;99.90
11855;DHT22;5987;53.140;8.904;2023-03-12T04:21:55;-0.50;99.90
11855;DHT22;5987;53.140;8.904;2023-03-12T04:24:59;-0.50;99.90
11855;DHT22;5987;53.140;8.904;2023-03-12T04:28:03;-0.40;99.90
11855;DHT22;5987;53.140;8.904;2023-03-12T04:31:10;-0.30;99.90
11855;DHT22;5987;53.140;8.904;2023-03-12T04:34:14;-0.20;99.90
11855;DHT22;5987;53.140;8.904;2023-03-12T04:37:18;-0.20;99.90
11855;DHT22;5987;53.140;8.904;2023-03-12T04:40:21;-0.20;99.90
11855;DHT22;5987;53.140;8.904;2023-03-12T04:43:25;-0.20;99.90
11855;DHT22;5987;53.140;8.904;2023-03-12T04:46:31;-0.10;99.90
11855;DHT22;5987;53.140;8.904;2023-03-12T04:49:36;-0.20;99.90
11855;DHT22;5987;53.140;8.904;2023-03-12T04:52:40;0.00;99.90
11855;DHT22;5987;53.140;8.904;2023-03-12T04:55:44;0.00;99.90
11855;DHT22;5987;53.140;8.904;2023-03-12T04:58:47;0.10;99.90
11855;DHT22;5987;53.140;8.904;2023-03-12T05:01:52;-0.10;99.90
11855;DHT22;5987;53.140;8.904;2023-03-12T05:04:56;-0.10;99.90
11855;DHT22;5987;53.140;8.904;2023-03-12T05:08:00;-0.10;99.90
11855;DHT22;5987;53.140;8.904;2023-03-12T05:11:04;-0.10;99.90
11855;DHT22;5987;53.140;8.904;2023-03-12T05:14:09;-0.20;99.90
11855;DHT22;5987;53.140;8.904;2023-03-12T05:17:15;-0.10;99.90
11855;DHT22;5987;53.140;8.904;2023-03-12T05:20:18;0.00;99.90
11855;DHT22;5987;53.140;8.904;2023-03-12T05:23:22;0.10;99.90
11855;DHT22;5987;53.140;8.904;2023-03-12T05:26:28;0.00;99.90
11855;DHT22;5987;53.140;8.904;2023-03-12T05:29:33;-0.20;99.90
11855;DHT22;5987;53.140;8.904;2023-03-12T05:32:38;-0.20;99.90
11855;DHT22;5987;53.140;8.904;2023-03-12T05:35:42;-0.20;99.90
11855;DHT22;5987;53.140;8.904;2023-03-12T05:38:46;-0.30;99.90
11855;DHT22;5987;53.140;8.904;2023-03-12T05:41:50;-0.40;99.90
11855;DHT22;5987;53.140;8.904;2023-03-12T05:44:55;-0.30;99.90
11855;DHT22;5987;53.140;8.904;2023-03-12T05:48:01;-0.30;99.90
11855;DHT22;5987;53.140;8.904;2023-03-12T05:51:05;-0.20;99.90
11855;DHT22;5987;53.140;8.904;2023-03-12T05:54:09;-0.10;99.90
11855;DHT22;5987;53.140;8.904;2023-03-12T05:57:13;-0.20;99.90
11855;DHT22;5987;53.140;8.904;2023-03-12T06:00:18;-0.10;99.90
11855;DHT22;5987;53.140;8.904;2023-03-12T06:03:24;-0.20;99.90
11855;DHT22;5987;53.140;8.904;2023-03-12T06:06:29;-0.10;99.90
11855;DHT22;5987;53.140;8.904;2023-03-12T06:09:34;-0.10;99.90
11855;DHT22;5987;53.140;8.904;2023-03-12T06:12:38;0.00;99.90
11855;DHT22;5987;53.140;8.904;2023-03-12T06:15:42;0.00;99.90
11855;DHT22;5987;53.140;8.904;2023-03-12T06:18:48;0.10;99.90
11855;DHT22;5987;53.140;8.904;2023-03-12T06:21:55;0.00;99.90
11855;DHT22;5987;53.140;8.904;2023-03-12T06:24:59;0.10;99.90
11855;DHT22;5987;53.140;8.904;2023-03-12T06:28:02;0.20;99.90
11855;DHT22;5987;53.140;8.904;2023-03-12T06:31:06;0.20;99.90
11855;DHT22;5987;53.140;8.904;2023-03-12T06:34:12;0.10;99.90
11855;DHT22;5987;53.140;8.904;2023-03-12T06:37:17;0.20;99.90
11855;DHT22;5987;53.140;8.904;2023-03-12T06:40:21;0.30;99.90
11855;DHT22;5987;53.140;8.904;2023-03-12T06:43:26;0.40;99.90
11855;DHT22;5987;53.140;8.904;2023-03-12T06:46:31;0.40;99.90
11855;DHT22;5987;53.140;8.904;2023-03-12T06:49:36;0.40;99.90
11855;DHT22;5987;53.140;8.904;2023-03-12T06:52:40;0.40;99.90
11855;DHT22;5987;53.140;8.904;2023-03-12T06:55:44;0.50;99.90
11855;DHT22;5987;53.140;8.904;2023-03-12T06:58:49;0.70;99.90
11855;DHT22;5987;53.140;8.904;2023-03-12T07:01:52;0.80;99.90
11855;DHT22;5987;53.140;8.904;2023-03-12T07:04:57;0.80;99.90
11855;DHT22;5987;53.140;8.904;2023-03-12T07:08:01;0.80;99.90
11855;DHT22;5987;53.140;8.904;2023-03-12T07:11:05;0.90;99.90
11855;DHT22;5987;53.140;8.904;2023-03-12T07:14:09;0.90;99.90
11855;DHT22;5987;53.140;8.904;2023-03-12T07:17:12;1.10;99.90
11855;DHT22;5987;53.140;8.904;2023-03-12T07:20:18;1.30;99.90
11855;DHT22;5987;53.140;8.904;2023-03-12T07:23:22;1.40;99.90
11855;DHT22;5987;53.140;8.904;2023-03-12T07:26:26;1.40;99.90
11855;DHT22;5987;53.140;8.904;2023-03-12T07:29:29;1.50;99.90
11855;DHT22;5987;53.140;8.904;2023-03-12T07:32:33;1.70;99.90
11855;DHT22;5987;53.140;8.904;2023-03-12T07:35:39;1.80;99.90
11855;DHT22;5987;53.140;8.904;2023-03-12T07:38:43;2.00;99.90
11855;DHT22;5987;53.140;8.904;2023-03-12T07:41:47;2.00;99.90
11855;DHT22;5987;53.140;8.904;2023-03-12T07:44:51;2.20;99.90
11855;DHT22;5987;53.140;8.904;2023-03-12T07:47:55;2.10;99.90
11855;DHT22;5987;53.140;8.904;2023-03-12T07:51:00;2.00;99.90
11855;DHT22;5987;53.140;8.904;2023-03-12T07:54:05;1.90;99.90
11855;DHT22;5987;53.140;8.904;2023-03-12T07:57:11;1.80;99.90
11855;DHT22;5987;53.140;8.904;2023-03-12T08:00:15;1.90;99.90
11855;DHT22;5987;53.140;8.904;2023-03-12T08:03:19;1.90;99.90
11855;DHT22;5987;53.140;8.904;2023-03-12T08:06:25;2.00;99.90
11855;DHT22;5987;53.140;8.904;2023-03-12T08:09:29;2.10;99.90
11855;DHT22;5987;53.140;8.904;2023-03-12T08:12:34;2.20;99.90
11855;DHT22;5987;53.140;8.904;2023-03-12T08:15:39;2.40;99.90
11855;DHT22;5987;53.140;8.904;2023-03-12T08:18:43;2.30;99.90
11855;DHT22;5987;53.140;8.904;2023-03-12T08:21:48;2.40;99.90
11855;DHT22;5987;53.140;8.904;2023-03-12T08:24:52;2.50;99.90
11855;DHT22;5987;53.140;8.904;2023-03-12T08:27:56;2.40;99.90
11855;DHT22;5987;53.140;8.904;2023-03-12T08:31:00;2.80;99.90
11855;DHT22;5987;53.140;8.904;2023-03-12T08:34:04;2.80;99.90
11855;DHT22;5987;53.140;8.904;2023-03-12T08:37:09;3.10;99.90
11855;DHT22;5987;53.140;8.904;2023-03-12T08:40:13;3.20;99.90
11855;DHT22;5987;53.140;8.904;2023-03-12T08:43:17;3.20;99.90
11855;DHT22;5987;53.140;8.904;2023-03-12T08:46:20;3.10;99.90
11855;DHT22;5987;53.140;8.904;2023-03-12T08:49:24;3.10;99.90
11855;DHT22;5987;53.140;8.904;2023-03-12T08:52:29;3.30;99.90
11855;DHT22;5987;53.140;8.904;2023-03-12T08:55:33;3.50;99.90
11855;DHT22;5987;53.140;8.904;2023-03-12T08:58:37;3.60;99.90
11855;DHT22;5987;53.140;8.904;2023-03-12T09:01:41;3.60;99.90
11855;DHT22;5987;53.140;8.904;2023-03-12T09:04:46;3.70;99.90
11855;DHT22;5987;53.140;8.904;2023-03-12T09:07:52;3.60;99.90
11855;DHT22;5987;53.140;8.904;2023-03-12T09:10:56;3.80;99.90
11855;DHT22;5987;53.140;8.904;2023-03-12T09:14:00;3.70;99.90
11855;DHT22;5987;53.140;8.904;2023-03-12T09:17:24;3.80;99.90
11855;DHT22;5987;53.140;8.904;2023-03-12T09:20:28;3.70;99.90
11855;DHT22;5987;53.140;8.904;2023-03-12T09:23:33;3.90;99.90
11855;DHT22;5987;53.140;8.904;2023-03-12T09:26:37;4.00;99.90
11855;DHT22;5987;53.140;8.904;2023-03-12T09:29:41;4.20;99.90
11855;DHT22;5987;53.140;8.904;2023-03-12T09:33:01;4.40;99.90
11855;DHT22;5987;53.140;8.904;2023-03-12T09:36:05;4.50;99.90
11855;DHT22;5987;53.140;8.904;2023-03-12T09:39:11;4.20;99.90
11855;DHT22;5987;53.140;8.904;2023-03-12T09:42:22;4.00;99.90
11855;DHT22;5987;53.140;8.904;2023-03-12T09:45:30;4.20;99.90
11855;DHT22;5987;53.140;8.904;2023-03-12T09:48:39;4.40;99.90
11855;DHT22;5987;53.140;8.904;2023-03-12T09:51:44;4.40;99.90
11855;DHT22;5987;53.140;8.904;2023-03-12T09:55:02;4.30;99.90
11855;DHT22;5987;53.140;8.904;2023-03-12T09:58:12;4.50;99.90
11855;DHT22;5987;53.140;8.904;2023-03-12T10:01:33;4.50;99.90
11855;DHT22;5987;53.140;8.904;2023-03-12T10:04:41;4.50;99.90
11855;DHT22;5987;53.140;8.904;2023-03-12T10:08:05;4.50;99.90
11855;DHT22;5987;53.140;8.904;2023-03-12T10:11:41;4.60;99.90
11855;DHT22;5987;53.140;8.904;2023-03-12T10:15:02;5.00;99.90
11855;DHT22;5987;53.140;8.904;2023-03-12T10:18:25;5.00;99.90
11855;DHT22;5987;53.140;8.904;2023-03-12T10:21:43;5.30;99.90
11855;DHT22;5987;53.140;8.904;2023-03-12T10:25:01;5.60;99.90
11855;DHT22;5987;53.140;8.904;2023-03-12T10:28:17;5.60;99.90
11855;DHT22;5987;53.140;8.904;2023-03-12T10:31:27;5.50;99.90
11855;DHT22;5987;53.140;8.904;2023-03-12T10:34:39;5.20;99.90
11855;DHT22;5987;53.140;8.904;2023-03-12T10:37:47;5.20;99.90
11855;DHT22;5987;53.140;8.904;2023-03-12T10:40:53;5.40;99.90
11855;DHT22;5987;53.140;8.904;2023-03-12T10:44:02;5.40;99.90
11855;DHT22;5987;53.140;8.904;2023-03-12T10:47:22;5.40;99.90
11855;DHT22;5987;53.140;8.904;2023-03-12T10:50:33;5.40;99.90
11855;DHT22;5987;53.140;8.904;2023-03-12T10:53:39;5.40;99.90
11855;DHT22;5987;53.140;8.904;2023-03-12T10:56:48;5.10;99.90
11855;DHT22;5987;53.140;8.904;2023-03-12T11:00:04;5.10;99.90
11855;DHT22;5987;53.140;8.904;2023-03-12T11:03:21;5.30;99.90
11855;DHT22;5987;53.140;8.904;2023-03-12T11:06:27;5.00;99.90
11855;DHT22;5987;53.140;8.904;2023-03-12T11:09:32;5.00;99.90
11855;DHT22;5987;53.140;8.904;2023-03-12T11:12:38;5.20;99.90
11855;DHT22;5987;53.140;8.904;2023-03-12T11:15:43;5.50;99.90
11855;DHT22;5987;53.140;8.904;2023-03-12T11:18:54;5.40;99.90
11855;DHT22;5987;53.140;8.904;2023-03-12T11:22:02;5.10;99.90
11855;DHT22;5987;53.140;8.904;2023-03-12T11:25:20;5.40;99.90
11855;DHT22;5987;53.140;8.904;2023-03-12T11:28:35;5.50;99.90
11855;DHT22;5987;53.140;8.904;2023-03-12T11:31:47;5.40;99.90
11855;DHT22;5987;53.140;8.904;2023-03-12T11:34:58;5.70;99.90
11855;DHT22;5987;53.140;8.904;2023-03-12T11:38:07;5.60;99.90
11855;DHT22;5987;53.140;8.904;2023-03-12T11:41:40;5.50;99.90
11855;DHT22;5987;53.140;8.904;2023-03-12T11:45:01;5.30;99.90
11855;DHT22;5987;53.140;8.904;2023-03-12T11:48:23;5.40;99.90
11855;DHT22;5987;53.140;8.904;2023-03-12T11:51:41;5.00;99.90
11855;DHT22;5987;53.140;8.904;2023-03-12T11:55:21;4.80;99.90
11855;DHT22;5987;53.140;8.904;2023-03-12T11:58:51;4.50;99.90
11855;DHT22;5987;53.140;8.904;2023-03-12T12:02:20;4.40;99.90
11855;DHT22;5987;53.140;8.904;2023-03-12T12:05:44;4.10;99.90
11855;DHT22;5987;53.140;8.904;2023-03-12T12:09:13;4.20;99.90
11855;DHT22;5987;53.140;8.904;2023-03-12T12:12:44;4.00;99.90
11855;DHT22;5987;53.140;8.904;2023-03-12T12:16:05;3.90;99.90
11855;DHT22;5987;53.140;8.904;2023-03-12T12:19:31;4.00;99.90
11855;DHT22;5987;53.140;8.904;2023-03-12T12:23:00;4.10;99.90
11855;DHT22;5987;53.140;8.904;2023-03-12T12:26:19;4.00;99.90
11855;DHT22;5987;53.140;8.904;2023-03-12T12:29:39;3.80;99.90
11855;DHT22;5987;53.140;8.904;2023-03-12T12:33:07;3.70;99.90
11855;DHT22;5987;53.140;8.904;2023-03-12T12:36:28;3.40;99.90
11855;DHT22;5987;53.140;8.904;2023-03-12T12:39:41;3.50;99.90
11855;DHT22;5987;53.140;8.904;2023-03-12T12:43:02;3.60;99.90
11855;DHT22;5987;53.140;8.904;2023-03-12T12:46:16;3.70;99.90
11855;DHT22;5987;53.140;8.904;2023-03-12T12:49:30;3.50;99.90
11855;DHT22;5987;53.140;8.904;2023-03-12T12:52:41;3.20;99.90
11855;DHT22;5987;53.140;8.904;2023-03-12T12:55:59;3.10;99.90
11855;DHT22;5987;53.140;8.904;2023-03-12T12:59:31;3.20;99.90
11855;DHT22;5987;53.140;8.904;2023-03-12T13:02:43;3.20;99.90
11855;DHT22;5987;53.140;8.904;2023-03-12T13:05:57;3.10;99.90
11855;DHT22;5987;53.140;8.904;2023-03-12T13:09:14;3.10;99.90
11855;DHT22;5987;53.140;8.904;2023-03-12T13:12:30;3.30;99.90
11855;DHT22;5987;53.140;8.904;2023-03-12T13:15:45;3.30;99.90
11855;DHT22;5987;53.140;8.904;2023-03-12T13:18:57;3.40;99.90
11855;DHT22;5987;53.140;8.904;2023-03-12T13:22:11;3.40;99.90
11855;DHT22;5987;53.140;8.904;2023-03-12T13:25:34;3.30;99.90
11855;DHT22;5987;53.140;8.904;2023-03-12T13:33:09;3.30;99.90
11855;DHT22;5987;53.140;8.904;2023-03-12T13:36:22;3.20;99.90
11855;DHT22;5987;53.140;8.904;2023-03-12T13:39:30;3.30;99.90
11855;DHT22;5987;53.140;8.904;2023-03-12T13:42:39;3.30;99.90
11855;DHT22;5987;53.140;8.904;2023-03-12T13:46:00;3.40;99.90
11855;DHT22;5987;53.140;8.904;2023-03-12T13:49:15;3.50;99.90
11855;DHT22;5987;53.140;8.904;2023-03-12T13:52:25;3.30;99.90
11855;DHT22;5987;53.140;8.904;2023-03-12T13:55:33;3.40;99.90
11855;DHT22;5987;53.140;8.904;2023-03-12T13:58:41;3.50;99.90
11855;DHT22;5987;53.140;8.904;2023-03-12T14:01:59;3.50;99.90
11855;DHT22;5987;53.140;8.904;2023-03-12T14:05:08;3.40;99.90
11855;DHT22;5987;53.140;8.904;2023-03-12T14:08:46;3.50;99.90
11855;DHT22;5987;53.140;8.904;2023-03-12T14:12:04;3.60;99.90
11855;DHT22;5987;53.140;8.904;2023-03-12T14:15:38;3.50;99.90
11855;DHT22;5987;53.140;8.904;2023-03-12T14:18:53;3.40;99.90
11855;DHT22;5987;53.140;8.904;2023-03-12T14:22:01;3.40;99.90
11855;DHT22;5987;53.140;8.904;2023-03-12T14:25:15;3.50;99.90
11855;DHT22;5987;53.140;8.904;2023-03-12T14:28:26;3.30;99.90
11855;DHT22;5987;53.140;8.904;2023-03-12T14:31:34;3.20;99.90
11855;DHT22;5987;53.140;8.904;2023-03-12T14:34:43;3.30;99.90
11855;DHT22;5987;53.140;8.904;2023-03-12T14:37:54;3.30;99.90
11855;DHT22;5987;53.140;8.904;2023-03-12T14:41:05;3.40;99.90
11855;DHT22;5987;53.140;8.904;2023-03-12T14:44:21;3.50;99.90
11855;DHT22;5987;53.140;8.904;2023-03-12T14:47:28;3.50;99.90
11855;DHT22;5987;53.140;8.904;2023-03-12T14:50:39;3.50;99.90
11855;DHT22;5987;53.140;8.904;2023-03-12T14:53:43;3.70;99.90
11855;DHT22;5987;53.140;8.904;2023-03-12T14:56:47;3.70;99.90
11855;DHT22;5987;53.140;8.904;2023-03-12T14:59:52;3.60;99.90
11855;DHT22;5987;53.140;8.904;2023-03-12T15:03:02;3.70;99.90
11855;DHT22;5987;53.140;8.904;2023-03-12T15:06:14;3.80;99.90
11855;DHT22;5987;53.140;8.904;2023-03-12T15:09:24;3.70;99.90
11855;DHT22;5987;53.140;8.904;2023-03-12T15:12:33;3.70;99.90
11855;DHT22;5987;53.140;8.904;2023-03-12T15:15:42;3.80;99.90
11855;DHT22;5987;53.140;8.904;2023-03-12T15:18:48;3.90;99.90
11855;DHT22;5987;53.140;8.904;2023-03-12T15:21:55;4.00;99.90
11855;DHT22;5987;53.140;8.904;2023-03-12T15:25:01;4.10;99.90
11855;DHT22;5987;53.140;8.904;2023-03-12T15:28:21;4.10;99.90
11855;DHT22;5987;53.140;8.904;2023-03-12T15:31:40;4.10;99.90
11855;DHT22;5987;53.140;8.904;2023-03-12T15:34:46;4.20;99.90
11855;DHT22;5987;53.140;8.904;2023-03-12T15:37:55;4.10;99.90
11855;DHT22;5987;53.140;8.904;2023-03-12T15:41:15;4.20;99.90
11855;DHT22;5987;53.140;8.904;2023-03-12T15:44:24;4.30;99.90
11855;DHT22;5987;53.140;8.904;2023-03-12T15:47:33;4.30;99.90
11855;DHT22;5987;53.140;8.904;2023-03-12T15:50:43;4.30;99.90
11855;DHT22;5987;53.140;8.904;2023-03-12T15:53:58;4.30;99.90
11855;DHT22;5987;53.140;8.904;2023-03-12T15:57:20;4.40;99.90
11855;DHT22;5987;53.140;8.904;2023-03-12T16:00:28;4.50;99.90
11855;DHT22;5987;53.140;8.904;2023-03-12T16:03:34;4.50;99.90
11855;DHT22;5987;53.140;8.904;2023-03-12T16:06:38;4.60;99.90
11855;DHT22;5987;53.140;8.904;2023-03-12T16:09:47;4.60;99.90
11855;DHT22;5987;53.140;8.904;2023-03-12T16:12:57;4.70;99.90
11855;DHT22;5987;53.140;8.904;2023-03-12T16:16:05;4.80;99.90
11855;DHT22;5987;53.140;8.904;2023-03-12T16:19:11;4.80;99.90
11855;DHT22;5987;53.140;8.904;2023-03-12T16:22:17;4.80;99.90
11855;DHT22;5987;53.140;8.904;2023-03-12T16:25:23;4.90;99.90
11855;DHT22;5987;53.140;8.904;2023-03-12T16:28:29;4.90;99.90
11855;DHT22;5987;53.140;8.904;2023-03-12T16:31:33;4.90;99.90
11855;DHT22;5987;53.140;8.904;2023-03-12T16:34:37;4.90;99.90
11855;DHT22;5987;53.140;8.904;2023-03-12T16:37:41;5.00;99.90
11855;DHT22;5987;53.140;8.904;2023-03-12T16:40:49;5.00;99.90
11855;DHT22;5987;53.140;8.904;2023-03-12T16:43:54;5.10;99.90
11855;DHT22;5987;53.140;8.904;2023-03-12T16:46:58;5.10;99.90
11855;DHT22;5987;53.140;8.904;2023-03-12T16:50:14;5.10;99.90
11855;DHT22;5987;53.140;8.904;2023-03-12T16:53:20;5.20;99.90
11855;DHT22;5987;53.140;8.904;2023-03-12T16:56:28;5.10;99.90
11855;DHT22;5987;53.140;8.904;2023-03-12T16:59:32;5.20;99.90
11855;DHT22;5987;53.140;8.904;2023-03-12T17:02:39;5.20;99.90
11855;DHT22;5987;53.140;8.904;2023-03-12T17:05:44;5.30;99.90
11855;DHT22;5987;53.140;8.904;2023-03-12T17:08:49;5.30;99.90
11855;DHT22;5987;53.140;8.904;2023-03-12T17:11:56;5.30;99.90
11855;DHT22;5987;53.140;8.904;2023-03-12T17:15:03;5.40;99.90
11855;DHT22;5987;53.140;8.904;2023-03-12T17:18:10;5.50;99.90
11855;DHT22;5987;53.140;8.904;2023-03-12T17:21:16;5.40;99.90
11855;DHT22;5987;53.140;8.904;2023-03-12T17:24:21;5.70;99.90
11855;DHT22;5987;53.140;8.904;2023-03-12T17:27:31;5.50;99.90
11855;DHT22;5987;53.140;8.904;2023-03-12T17:30:35;5.60;99.90
11855;DHT22;5987;53.140;8.904;2023-03-12T17:33:39;5.60;99.90
11855;DHT22;5987;53.140;8.904;2023-03-12T17:36:44;5.60;99.90
11855;DHT22;5987;53.140;8.904;2023-03-12T17:39:48;5.60;99.90
11855;DHT22;5987;53.140;8.904;2023-03-12T17:42:53;5.70;99.90
11855;DHT22;5987;53.140;8.904;2023-03-12T17:45:57;5.80;99.90
11855;DHT22;5987;53.140;8.904;2023-03-12T17:49:07;5.80;99.90
11855;DHT22;5987;53.140;8.904;2023-03-12T17:52:11;5.50;99.90
11855;DHT22;5987;53.140;8.904;2023-03-12T17:55:15;5.90;99.90
11855;DHT22;5987;53.140;8.904;2023-03-12T17:58:20;5.90;99.90
11855;DHT22;5987;53.140;8.904;2023-03-12T18:01:25;5.90;99.90
11855;DHT22;5987;53.140;8.904;2023-03-12T18:04:29;6.00;99.90
11855;DHT22;5987;53.140;8.904;2023-03-12T18:07:34;6.00;99.90
11855;DHT22;5987;53.140;8.904;2023-03-12T18:10:39;6.00;99.90
11855;DHT22;5987;53.140;8.904;2023-03-12T18:13:45;6.10;99.90
11855;DHT22;5987;53.140;8.904;2023-03-12T18:16:51;6.20;99.90
11855;DHT22;5987;53.140;8.904;2023-03-12T18:19:55;6.40;99.90
11855;DHT22;5987;53.140;8.904;2023-03-12T18:23:00;5.80;99.90
11855;DHT22;5987;53.140;8.904;2023-03-12T18:26:04;6.30;99.90
11855;DHT22;5987;53.140;8.904;2023-03-12T18:29:12;6.40;99.90
11855;DHT22;5987;53.140;8.904;2023-03-12T18:32:16;6.40;99.90
11855;DHT22;5987;53.140;8.904;2023-03-12T18:35:25;6.40;99.90
11855;DHT22;5987;53.140;8.904;2023-03-12T18:38:32;6.40;99.90
11855;DHT22;5987;53.140;8.904;2023-03-12T18:41:36;6.40;99.90
11855;DHT22;5987;53.140;8.904;2023-03-12T18:44:44;6.50;99.90
11855;DHT22;5987;53.140;8.904;2023-03-12T18:47:49;6.50;99.90
11855;DHT22;5987;53.140;8.904;2023-03-12T18:50:53;6.60;99.90
11855;DHT22;5987;53.140;8.904;2023-03-12T18:53:59;6.60;99.90
11855;DHT22;5987;53.140;8.904;2023-03-12T18:57:04;6.60;99.90
11855;DHT22;5987;53.140;8.904;2023-03-12T19:00:12;6.50;99.90
11855;DHT22;5987;53.140;8.904;2023-03-12T19:03:20;6.50;99.90
11855;DHT22;5987;53.140;8.904;2023-03-12T19:06:25;6.50;99.90
11855;DHT22;5987;53.140;8.904;2023-03-12T19:09:34;6.60;99.90
11855;DHT22;5987;53.140;8.904;2023-03-12T19:12:38;6.60;99.90
11855;DHT22;5987;53.140;8.904;2023-03-12T19:16:00;6.60;99.90
11855;DHT22;5987;53.140;8.904;2023-03-12T19:19:04;6.60;99.90
11855;DHT22;5987;53.140;8.904;2023-03-12T19:22:08;6.70;99.90
11855;DHT22;5987;53.140;8.904;2023-03-12T19:25:12;6.70;99.90
11855;DHT22;5987;53.140;8.904;2023-03-12T19:28:16;6.70;99.90
11855;DHT22;5987;53.140;8.904;2023-03-12T19:31:21;6.80;99.90
11855;DHT22;5987;53.140;8.904;2023-03-12T19:34:26;6.70;99.90
11855;DHT22;5987;53.140;8.904;2023-03-12T19:37:30;6.70;99.90
11855;DHT22;5987;53.140;8.904;2023-03-12T19:40:34;6.80;99.90
11855;DHT22;5987;53.140;8.904;2023-03-12T19:43:37;6.80;99.90
11855;DHT22;5987;53.140;8.904;2023-03-12T19:46:43;6.90;99.90
11855;DHT22;5987;53.140;8.904;2023-03-12T19:49:47;6.80;99.90
11855;DHT22;5987;53.140;8.904;2023-03-12T19:52:51;6.80;99.90
11855;DHT22;5987;53.140;8.904;2023-03-12T19:55:54;6.80;99.90
11855;DHT22;5987;53.140;8.904;2023-03-12T19:58:58;6.70;99.90
11855;DHT22;5987;53.140;8.904;2023-03-12T20:02:03;6.70;99.90
11855;DHT22;5987;53.140;8.904;2023-03-12T20:05:08;6.70;99.90
11855;DHT22;5987;53.140;8.904;2023-03-12T20:08:12;6.70;99.90
11855;DHT22;5987;53.140;8.904;2023-03-12T20:11:16;6.70;99.90
11855;DHT22;5987;53.140;8.904;2023-03-12T20:14:20;6.60;99.90
11855;DHT22;5987;53.140;8.904;2023-03-12T20:17:25;6.60;99.90
11855;DHT22;5987;53.140;8.904;2023-03-12T20:20:29;6.50;99.90
11855;DHT22;5987;53.140;8.904;2023-03-12T20:23:33;6.50;99.90
11855;DHT22;5987;53.140;8.904;2023-03-12T20:26:37;6.50;99.90
11855;DHT22;5987;53.140;8.904;2023-03-12T20:29:41;6.50;99.90